sensor_id;sensor_type;location;lat;lon;timestamp;temperature;humidity
69393;SHT31;56582;44.624;20.378;2023-04-25T00:00:31;13.13;88.94
69393;SHT31;56582;44.624;20.378;2023-04-25T00:02:56;13.05;89.14
69393;SHT31;56582;44.624;20.378;2023-04-25T00:05:25;12.91;89.56
69393;SHT31;56582;44.624;20.378;2023-04-25T00:07:59;12.72;90.06
69393;SHT31;56582;44.624;20.378;2023-04-25T00:10:27;12.75;90.30
69393;SHT31;56582;44.624;20.378;2023-04-25T00:12:55;12.71;90.60
69393;SHT31;56582;44.624;20.378;2023-04-25T00:15:22;12.67;90.48
69393;SHT31;56582;44.624;20.378;2023-04-25T00:17:49;12.57;91.07
69393;SHT31;56582;44.624;20.378;2023-04-25T00:20:14;12.54;91.16
69393;SHT31;56582;44.624;20.378;2023-04-25T00:22:49;12.54;91.35
69393;SHT31;56582;44.624;20.378;2023-04-25T00:25:22;12.40;91.70
69393;SHT31;56582;44.624;20.378;2023-04-25T00:28:11;12.47;91.98
69393;SHT31;56582;44.624;20.378;2023-04-25T00:30:45;12.40;91.94
69393;SHT31;56582;44.624;20.378;2023-04-25T00:33:39;12.26;91.85
69393;SHT31;56582;44.624;20.378;2023-04-25T00:36:15;12.38;91.95
69393;SHT31;56582;44.624;20.378;2023-04-25T00:38:44;12.41;91.77
69393;SHT31;56582;44.624;20.378;2023-04-25T00:41:10;12.62;91.32
69393;SHT31;56582;44.624;20.378;2023-04-25T00:43:36;12.72;90.88
69393;SHT31;56582;44.624;20.378;2023-04-25T00:46:06;12.84;90.96
69393;SHT31;56582;44.624;20.378;2023-04-25T00:48:34;12.84;90.46
69393;SHT31;56582;44.624;20.378;2023-04-25T00:51:00;12.55;90.91
69393;SHT31;56582;44.624;20.378;2023-04-25T00:53:32;12.69;90.89
69393;SHT31;56582;44.624;20.378;2023-04-25T00:55:58;12.67;90.66
69393;SHT31;56582;44.624;20.378;2023-04-25T00:58:28;12.93;90.24
69393;SHT31;56582;44.624;20.378;2023-04-25T01:00:55;12.89;90.27
69393;SHT31;56582;44.624;20.378;2023-04-25T01:03:23;12.88;90.34
69393;SHT31;56582;44.624;20.378;2023-04-25T01:05:49;12.88;90.34
69393;SHT31;56582;44.624;20.378;2023-04-25T01:08:21;12.95;90.11
69393;SHT31;56582;44.624;20.378;2023-04-25T01:10:48;13.02;89.84
69393;SHT31;56582;44.624;20.378;2023-04-25T01:13:14;12.91;90.27
69393;SHT31;56582;44.624;20.378;2023-04-25T01:15:39;12.77;90.53
69393;SHT31;56582;44.624;20.378;2023-04-25T01:18:05;12.75;90.71
69393;SHT31;56582;44.624;20.378;2023-04-25T01:20:32;12.71;90.74
69393;SHT31;56582;44.624;20.378;2023-04-25T01:22:58;12.69;90.84
69393;SHT31;56582;44.624;20.378;2023-04-25T01:25:23;12.82;90.70
69393;SHT31;56582;44.624;20.378;2023-04-25T01:27:49;12.72;90.75
69393;SHT31;56582;44.624;20.378;2023-04-25T01:30:14;12.87;90.44
69393;SHT31;56582;44.624;20.378;2023-04-25T01:32:48;12.95;90.24
69393;SHT31;56582;44.624;20.378;2023-04-25T01:35:14;12.81;90.53
69393;SHT31;56582;44.624;20.378;2023-04-25T01:38:05;12.82;90.63
69393;SHT31;56582;44.624;20.378;2023-04-25T01:40:33;12.77;90.75
69393;SHT31;56582;44.624;20.378;2023-04-25T01:43:02;12.93;90.47
69393;SHT31;56582;44.624;20.378;2023-04-25T01:45:33;12.87;90.47
69393;SHT31;56582;44.624;20.378;2023-04-25T01:48:04;12.96;90.43
69393;SHT31;56582;44.624;20.378;2023-04-25T01:50:41;12.96;90.33
69393;SHT31;56582;44.624;20.378;2023-04-25T01:53:20;12.96;90.07
69393;SHT31;56582;44.624;20.378;2023-04-25T01:56:10;12.87;90.52
69393;SHT31;56582;44.624;20.378;2023-04-25T01:59:05;12.72;90.87
69393;SHT31;56582;44.624;20.378;2023-04-25T02:01:54;12.81;90.63
69393;SHT31;56582;44.624;20.378;2023-04-25T02:04:38;12.81;90.66
69393;SHT31;56582;44.624;20.378;2023-04-25T02:07:15;12.78;90.92
69393;SHT31;56582;44.624;20.378;2023-04-25T02:10:04;12.64;91.23
69393;SHT31;56582;44.624;20.378;2023-04-25T02:12:59;12.78;91.13
69393;SHT31;56582;44.624;20.378;2023-04-25T02:15:36;12.82;90.92
69393;SHT31;56582;44.624;20.378;2023-04-25T02:18:22;12.75;90.97
69393;SHT31;56582;44.624;20.378;2023-04-25T02:20:48;12.68;91.34
69393;SHT31;56582;44.624;20.378;2023-04-25T02:23:29;12.57;91.45
69393;SHT31;56582;44.624;20.378;2023-04-25T02:25:59;12.51;91.49
69393;SHT31;56582;44.624;20.378;2023-04-25T02:28:35;12.61;91.75
69393;SHT31;56582;44.624;20.378;2023-04-25T02:31:02;12.53;91.69
69393;SHT31;56582;44.624;20.378;2023-04-25T02:33:28;12.40;92.12
69393;SHT31;56582;44.624;20.378;2023-04-25T02:35:56;12.40;92.45
69393;SHT31;56582;44.624;20.378;2023-04-25T02:38:24;12.48;92.02
69393;SHT31;56582;44.624;20.378;2023-04-25T02:40:52;12.27;92.37
69393;SHT31;56582;44.624;20.378;2023-04-25T02:43:26;12.37;92.26
69393;SHT31;56582;44.624;20.378;2023-04-25T02:46:06;12.30;92.44
69393;SHT31;56582;44.624;20.378;2023-04-25T02:48:45;12.13;92.78
69393;SHT31;56582;44.624;20.378;2023-04-25T02:51:21;12.23;92.81
69393;SHT31;56582;44.624;20.378;2023-04-25T02:53:50;12.12;92.55
69393;SHT31;56582;44.624;20.378;2023-04-25T02:56:18;12.20;92.83
69393;SHT31;56582;44.624;20.378;2023-04-25T02:58:57;12.06;93.01
69393;SHT31;56582;44.624;20.378;2023-04-25T03:01:34;11.81;93.19
69393;SHT31;56582;44.624;20.378;2023-04-25T03:04:20;11.85;93.26
69393;SHT31;56582;44.624;20.378;2023-04-25T03:06:46;12.00;93.17
69393;SHT31;56582;44.624;20.378;2023-04-25T03:09:12;11.95;93.15
69393;SHT31;56582;44.624;20.378;2023-04-25T03:11:41;11.83;93.41
69393;SHT31;56582;44.624;20.378;2023-04-25T03:14:09;11.90;93.43
69393;SHT31;56582;44.624;20.378;2023-04-25T03:16:44;11.87;93.48
69393;SHT31;56582;44.624;20.378;2023-04-25T03:19:27;11.92;93.45
69393;SHT31;56582;44.624;20.378;2023-04-25T03:22:01;12.02;93.23
69393;SHT31;56582;44.624;20.378;2023-04-25T03:24:30;12.05;93.12
69393;SHT31;56582;44.624;20.378;2023-04-25T03:26:57;11.92;92.94
69393;SHT31;56582;44.624;20.378;2023-04-25T03:29:28;12.02;92.80
69393;SHT31;56582;44.624;20.378;2023-04-25T03:31:53;12.00;92.72
69393;SHT31;56582;44.624;20.378;2023-04-25T03:34:19;11.92;92.76
69393;SHT31;56582;44.624;20.378;2023-04-25T03:36:46;11.99;92.62
69393;SHT31;56582;44.624;20.378;2023-04-25T03:39:12;11.92;92.87
69393;SHT31;56582;44.624;20.378;2023-04-25T03:41:40;12.09;92.79
69393;SHT31;56582;44.624;20.378;2023-04-25T03:44:05;12.05;92.83
69393;SHT31;56582;44.624;20.378;2023-04-25T03:46:44;12.16;92.76
69393;SHT31;56582;44.624;20.378;2023-04-25T03:49:10;12.07;92.60
69393;SHT31;56582;44.624;20.378;2023-04-25T03:51:38;12.09;92.88
69393;SHT31;56582;44.624;20.378;2023-04-25T03:54:06;12.10;92.59
69393;SHT31;56582;44.624;20.378;2023-04-25T03:56:32;12.12;92.65
69393;SHT31;56582;44.624;20.378;2023-04-25T03:58:58;12.09;92.84
69393;SHT31;56582;44.624;20.378;2023-04-25T04:01:23;12.03;92.79
69393;SHT31;56582;44.624;20.378;2023-04-25T04:03:48;12.10;92.68
69393;SHT31;56582;44.624;20.378;2023-04-25T04:06:14;12.23;92.60
69393;SHT31;56582;44.624;20.378;2023-04-25T04:08:40;12.27;92.10
69393;SHT31;56582;44.624;20.378;2023-04-25T04:11:05;12.29;92.10
69393;SHT31;56582;44.624;20.378;2023-04-25T04:13:31;12.26;92.32
69393;SHT31;56582;44.624;20.378;2023-04-25T04:15:57;12.26;92.28
69393;SHT31;56582;44.624;20.378;2023-04-25T04:18:23;12.37;92.17
69393;SHT31;56582;44.624;20.378;2023-04-25T04:20:48;12.43;91.96
69393;SHT31;56582;44.624;20.378;2023-04-25T04:23:14;12.27;92.49
69393;SHT31;56582;44.624;20.378;2023-04-25T04:25:39;12.41;92.16
69393;SHT31;56582;44.624;20.378;2023-04-25T04:28:08;12.29;92.04
69393;SHT31;56582;44.624;20.378;2023-04-25T04:30:33;12.36;92.33
69393;SHT31;56582;44.624;20.378;2023-04-25T04:33:01;12.45;91.82
69393;SHT31;56582;44.624;20.378;2023-04-25T04:35:27;12.22;92.02
69393;SHT31;56582;44.624;20.378;2023-04-25T04:37:53;12.30;92.63
69393;SHT31;56582;44.624;20.378;2023-04-25T04:40:19;12.24;93.03
69393;SHT31;56582;44.624;20.378;2023-04-25T04:42:45;12.24;92.21
69393;SHT31;56582;44.624;20.378;2023-04-25T04:45:11;12.34;92.03
69393;SHT31;56582;44.624;20.378;2023-04-25T04:47:37;12.19;91.59
69393;SHT31;56582;44.624;20.378;2023-04-25T04:50:05;12.24;92.51
69393;SHT31;56582;44.624;20.378;2023-04-25T04:52:34;12.22;92.10
69393;SHT31;56582;44.624;20.378;2023-04-25T04:55:00;12.10;92.28
69393;SHT31;56582;44.624;20.378;2023-04-25T04:57:28;12.20;91.75
69393;SHT31;56582;44.624;20.378;2023-04-25T04:59:53;12.17;91.64
69393;SHT31;56582;44.624;20.378;2023-04-25T05:02:19;12.17;92.48
69393;SHT31;56582;44.624;20.378;2023-04-25T05:04:45;12.16;92.63
69393;SHT31;56582;44.624;20.378;2023-04-25T05:07:10;11.92;92.79
69393;SHT31;56582;44.624;20.378;2023-04-25T05:09:36;12.02;92.74
69393;SHT31;56582;44.624;20.378;2023-04-25T05:12:01;12.10;93.22
69393;SHT31;56582;44.624;20.378;2023-04-25T05:14:28;11.92;93.36
69393;SHT31;56582;44.624;20.378;2023-04-25T05:16:53;11.87;93.54
69393;SHT31;56582;44.624;20.378;2023-04-25T05:19:19;11.75;94.11
69393;SHT31;56582;44.624;20.378;2023-04-25T05:21:50;11.54;93.78
69393;SHT31;56582;44.624;20.378;2023-04-25T05:24:15;11.35;93.83
69393;SHT31;56582;44.624;20.378;2023-04-25T05:26:45;11.13;93.64
69393;SHT31;56582;44.624;20.378;2023-04-25T05:29:11;11.00;94.24
69393;SHT31;56582;44.624;20.378;2023-04-25T05:31:36;10.81;94.19
69393;SHT31;56582;44.624;20.378;2023-04-25T05:34:07;10.86;94.33
69393;SHT31;56582;44.624;20.378;2023-04-25T05:36:41;10.62;94.85
69393;SHT31;56582;44.624;20.378;2023-04-25T05:39:09;10.60;94.83
69393;SHT31;56582;44.624;20.378;2023-04-25T05:41:34;10.55;95.02
69393;SHT31;56582;44.624;20.378;2023-04-25T05:44:02;10.49;95.18
69393;SHT31;56582;44.624;20.378;2023-04-25T05:46:28;10.56;95.41
69393;SHT31;56582;44.624;20.378;2023-04-25T05:48:53;10.55;95.38
69393;SHT31;56582;44.624;20.378;2023-04-25T05:51:19;10.50;94.80
69393;SHT31;56582;44.624;20.378;2023-04-25T05:53:44;10.42;94.99
69393;SHT31;56582;44.624;20.378;2023-04-25T05:56:10;10.52;95.27
69393;SHT31;56582;44.624;20.378;2023-04-25T05:58:35;10.52;95.14
69393;SHT31;56582;44.624;20.378;2023-04-25T06:01:01;10.44;94.99
69393;SHT31;56582;44.624;20.378;2023-04-25T06:03:27;10.34;95.35
69393;SHT31;56582;44.624;20.378;2023-04-25T06:05:53;10.12;95.70
69393;SHT31;56582;44.624;20.378;2023-04-25T06:08:18;10.34;95.47
69393;SHT31;56582;44.624;20.378;2023-04-25T06:10:46;10.28;95.53
69393;SHT31;56582;44.624;20.378;2023-04-25T06:13:12;10.10;95.76
69393;SHT31;56582;44.624;20.378;2023-04-25T06:15:37;10.00;95.76
69393;SHT31;56582;44.624;20.378;2023-04-25T06:18:05;9.91;95.96
69393;SHT31;56582;44.624;20.378;2023-04-25T06:20:30;10.04;96.04
69393;SHT31;56582;44.624;20.378;2023-04-25T06:22:55;9.90;95.47
69393;SHT31;56582;44.624;20.378;2023-04-25T06:25:21;9.93;95.56
69393;SHT31;56582;44.624;20.378;2023-04-25T06:27:46;10.02;95.56
69393;SHT31;56582;44.624;20.378;2023-04-25T06:30:12;10.00;95.57
69393;SHT31;56582;44.624;20.378;2023-04-25T06:32:38;9.97;95.32
69393;SHT31;56582;44.624;20.378;2023-04-25T06:35:04;10.05;95.10
69393;SHT31;56582;44.624;20.378;2023-04-25T06:37:30;9.91;95.32
69393;SHT31;56582;44.624;20.378;2023-04-25T06:39:55;9.81;95.71
69393;SHT31;56582;44.624;20.378;2023-04-25T06:42:21;9.79;95.47
69393;SHT31;56582;44.624;20.378;2023-04-25T06:44:46;9.74;95.59
69393;SHT31;56582;44.624;20.378;2023-04-25T06:47:12;9.77;95.55
69393;SHT31;56582;44.624;20.378;2023-04-25T06:49:37;9.80;95.32
69393;SHT31;56582;44.624;20.378;2023-04-25T06:52:03;9.70;95.58
69393;SHT31;56582;44.624;20.378;2023-04-25T06:54:28;9.67;95.53
69393;SHT31;56582;44.624;20.378;2023-04-25T06:56:55;9.81;95.52
69393;SHT31;56582;44.624;20.378;2023-04-25T06:59:21;9.76;95.49
69393;SHT31;56582;44.624;20.378;2023-04-25T07:01:49;9.73;95.61
69393;SHT31;56582;44.624;20.378;2023-04-25T07:04:17;9.84;95.72
69393;SHT31;56582;44.624;20.378;2023-04-25T07:06:42;9.88;95.39
69393;SHT31;56582;44.624;20.378;2023-04-25T07:09:09;9.90;95.13
69393;SHT31;56582;44.624;20.378;2023-04-25T07:11:40;9.93;95.14
69393;SHT31;56582;44.624;20.378;2023-04-25T07:14:08;9.84;94.76
69393;SHT31;56582;44.624;20.378;2023-04-25T07:16:33;9.94;94.74
69393;SHT31;56582;44.624;20.378;2023-04-25T07:19:05;9.91;94.84
69393;SHT31;56582;44.624;20.378;2023-04-25T07:21:30;10.01;94.79
69393;SHT31;56582;44.624;20.378;2023-04-25T07:23:57;10.12;94.43
69393;SHT31;56582;44.624;20.378;2023-04-25T07:26:27;9.95;94.27
69393;SHT31;56582;44.624;20.378;2023-04-25T07:28:55;9.97;94.27
69393;SHT31;56582;44.624;20.378;2023-04-25T07:31:21;10.15;94.36
69393;SHT31;56582;44.624;20.378;2023-04-25T07:33:47;10.04;93.86
69393;SHT31;56582;44.624;20.378;2023-04-25T07:36:12;10.11;93.95
69393;SHT31;56582;44.624;20.378;2023-04-25T07:38:38;10.05;94.03
69393;SHT31;56582;44.624;20.378;2023-04-25T07:41:04;10.08;94.12
69393;SHT31;56582;44.624;20.378;2023-04-25T07:43:30;10.19;94.29
69393;SHT31;56582;44.624;20.378;2023-04-25T07:45:56;10.32;93.93
69393;SHT31;56582;44.624;20.378;2023-04-25T07:48:22;10.49;93.77
69393;SHT31;56582;44.624;20.378;2023-04-25T07:50:48;10.38;92.99
69393;SHT31;56582;44.624;20.378;2023-04-25T07:53:14;10.34;92.71
69393;SHT31;56582;44.624;20.378;2023-04-25T07:55:39;10.35;93.24
69393;SHT31;56582;44.624;20.378;2023-04-25T07:58:06;10.48;93.30
69393;SHT31;56582;44.624;20.378;2023-04-25T08:00:32;10.59;92.48
69393;SHT31;56582;44.624;20.378;2023-04-25T08:02:57;10.55;92.47
69393;SHT31;56582;44.624;20.378;2023-04-25T08:05:22;10.63;92.27
69393;SHT31;56582;44.624;20.378;2023-04-25T08:07:51;10.75;91.93
69393;SHT31;56582;44.624;20.378;2023-04-25T08:10:16;10.83;91.97
69393;SHT31;56582;44.624;20.378;2023-04-25T08:12:41;10.79;91.30
69393;SHT31;56582;44.624;20.378;2023-04-25T08:15:08;11.10;91.27
69393;SHT31;56582;44.624;20.378;2023-04-25T08:17:33;11.08;90.33
69393;SHT31;56582;44.624;20.378;2023-04-25T08:19:59;11.16;90.32
69393;SHT31;56582;44.624;20.378;2023-04-25T08:22:24;11.25;90.10
69393;SHT31;56582;44.624;20.378;2023-04-25T08:24:49;11.08;89.53
69393;SHT31;56582;44.624;20.378;2023-04-25T08:27:15;11.11;89.82
69393;SHT31;56582;44.624;20.378;2023-04-25T08:29:41;11.41;89.96
69393;SHT31;56582;44.624;20.378;2023-04-25T08:32:07;11.51;89.63
69393;SHT31;56582;44.624;20.378;2023-04-25T08:34:32;11.59;89.06
69393;SHT31;56582;44.624;20.378;2023-04-25T08:36:57;11.69;88.17
69393;SHT31;56582;44.624;20.378;2023-04-25T08:39:23;11.81;87.34
69393;SHT31;56582;44.624;20.378;2023-04-25T08:41:49;11.68;87.08
69393;SHT31;56582;44.624;20.378;2023-04-25T08:44:16;11.68;87.31
69393;SHT31;56582;44.624;20.378;2023-04-25T08:46:41;11.64;86.23
69393;SHT31;56582;44.624;20.378;2023-04-25T08:49:08;12.02;87.61
69393;SHT31;56582;44.624;20.378;2023-04-25T08:51:36;12.14;86.87
69393;SHT31;56582;44.624;20.378;2023-04-25T08:54:12;12.05;85.74
69393;SHT31;56582;44.624;20.378;2023-04-25T08:56:38;11.96;85.11
69393;SHT31;56582;44.624;20.378;2023-04-25T08:59:05;12.09;84.62
69393;SHT31;56582;44.624;20.378;2023-04-25T09:01:34;12.09;84.90
69393;SHT31;56582;44.624;20.378;2023-04-25T09:04:00;12.32;85.37
69393;SHT31;56582;44.624;20.378;2023-04-25T09:06:26;12.36;84.32
69393;SHT31;56582;44.624;20.378;2023-04-25T09:08:52;12.51;84.03
69393;SHT31;56582;44.624;20.378;2023-04-25T09:11:18;12.64;84.24
69393;SHT31;56582;44.624;20.378;2023-04-25T09:13:45;12.89;85.40
69393;SHT31;56582;44.624;20.378;2023-04-25T09:16:10;12.81;84.29
69393;SHT31;56582;44.624;20.378;2023-04-25T09:18:36;12.75;82.56
69393;SHT31;56582;44.624;20.378;2023-04-25T09:21:12;12.62;83.28
69393;SHT31;56582;44.624;20.378;2023-04-25T09:23:44;12.48;82.65
69393;SHT31;56582;44.624;20.378;2023-04-25T09:26:10;12.27;83.07
69393;SHT31;56582;44.624;20.378;2023-04-25T09:28:38;12.36;83.18
69393;SHT31;56582;44.624;20.378;2023-04-25T09:31:04;12.64;83.34
69393;SHT31;56582;44.624;20.378;2023-04-25T09:33:32;12.84;83.40
69393;SHT31;56582;44.624;20.378;2023-04-25T09:36:08;13.22;82.76
69393;SHT31;56582;44.624;20.378;2023-04-25T09:38:43;13.26;80.98
69393;SHT31;56582;44.624;20.378;2023-04-25T09:41:09;13.15;80.76
69393;SHT31;56582;44.624;20.378;2023-04-25T09:43:36;12.89;80.34
69393;SHT31;56582;44.624;20.378;2023-04-25T09:46:02;12.89;81.86
69393;SHT31;56582;44.624;20.378;2023-04-25T09:48:28;13.09;82.23
69393;SHT31;56582;44.624;20.378;2023-04-25T09:53:28;13.56;77.84
69393;SHT31;56582;44.624;20.378;2023-04-25T09:55:55;13.40;77.21
69393;SHT31;56582;44.624;20.378;2023-04-25T09:58:24;13.36;77.88
69393;SHT31;56582;44.624;20.378;2023-04-25T10:00:50;13.33;80.46
69393;SHT31;56582;44.624;20.378;2023-04-25T10:03:17;13.40;78.51
69393;SHT31;56582;44.624;20.378;2023-04-25T10:05:43;13.59;75.46
69393;SHT31;56582;44.624;20.378;2023-04-25T10:08:10;13.84;75.78
69393;SHT31;56582;44.624;20.378;2023-04-25T10:10:36;13.97;76.38
69393;SHT31;56582;44.624;20.378;2023-04-25T10:13:04;13.92;76.25
69393;SHT31;56582;44.624;20.378;2023-04-25T10:15:32;13.88;76.04
69393;SHT31;56582;44.624;20.378;2023-04-25T10:18:00;14.02;76.78
69393;SHT31;56582;44.624;20.378;2023-04-25T10:20:26;14.21;73.53
69393;SHT31;56582;44.624;20.378;2023-04-25T10:22:54;14.42;73.78
69393;SHT31;56582;44.624;20.378;2023-04-25T10:25:22;14.36;70.98
69393;SHT31;56582;44.624;20.378;2023-04-25T10:27:51;14.43;73.83
69393;SHT31;56582;44.624;20.378;2023-04-25T10:30:18;14.43;72.17
69393;SHT31;56582;44.624;20.378;2023-04-25T10:32:44;14.36;70.10
69393;SHT31;56582;44.624;20.378;2023-04-25T10:35:17;13.94;72.05
69393;SHT31;56582;44.624;20.378;2023-04-25T10:38:13;13.85;73.27
69393;SHT31;56582;44.624;20.378;2023-04-25T10:40:39;13.74;75.22
69393;SHT31;56582;44.624;20.378;2023-04-25T10:45:55;13.81;74.47
69393;SHT31;56582;44.624;20.378;2023-04-25T10:48:30;13.61;73.43
69393;SHT31;56582;44.624;20.378;2023-04-25T10:51:09;13.75;73.92
69393;SHT31;56582;44.624;20.378;2023-04-25T10:53:35;13.64;76.51
69393;SHT31;56582;44.624;20.378;2023-04-25T10:56:05;13.51;73.85
69393;SHT31;56582;44.624;20.378;2023-04-25T10:58:34;13.56;73.09
69393;SHT31;56582;44.624;20.378;2023-04-25T11:01:01;13.81;74.13
69393;SHT31;56582;44.624;20.378;2023-04-25T11:03:26;14.05;74.33
69393;SHT31;56582;44.624;20.378;2023-04-25T11:05:52;14.24;72.95
69393;SHT31;56582;44.624;20.378;2023-04-25T11:08:35;14.50;71.75
69393;SHT31;56582;44.624;20.378;2023-04-25T11:11:02;14.75;73.48
69393;SHT31;56582;44.624;20.378;2023-04-25T11:13:31;14.88;70.44
69393;SHT31;56582;44.624;20.378;2023-04-25T11:15:56;14.80;70.18
69393;SHT31;56582;44.624;20.378;2023-04-25T11:18:26;14.84;72.19
69393;SHT31;56582;44.624;20.378;2023-04-25T11:20:51;14.84;70.90
69393;SHT31;56582;44.624;20.378;2023-04-25T11:23:17;14.65;70.66
69393;SHT31;56582;44.624;20.378;2023-04-25T11:25:42;14.43;68.46
69393;SHT31;56582;44.624;20.378;2023-04-25T11:28:09;14.33;69.54
69393;SHT31;56582;44.624;20.378;2023-04-25T11:30:35;14.25;70.37
69393;SHT31;56582;44.624;20.378;2023-04-25T11:33:00;14.33;69.50
69393;SHT31;56582;44.624;20.378;2023-04-25T11:35:27;14.00;69.63
69393;SHT31;56582;44.624;20.378;2023-04-25T11:37:53;14.19;71.84
69393;SHT31;56582;44.624;20.378;2023-04-25T11:40:18;14.21;72.05
69393;SHT31;56582;44.624;20.378;2023-04-25T11:42:45;14.26;72.14
69393;SHT31;56582;44.624;20.378;2023-04-25T11:45:12;14.19;72.44
69393;SHT31;56582;44.624;20.378;2023-04-25T11:47:38;14.15;72.74
69393;SHT31;56582;44.624;20.378;2023-04-25T11:50:06;14.50;71.79
69393;SHT31;56582;44.624;20.378;2023-04-25T11:52:43;14.94;71.67
69393;SHT31;56582;44.624;20.378;2023-04-25T11:55:20;14.73;70.59
69393;SHT31;56582;44.624;20.378;2023-04-25T11:57:48;14.66;69.67
69393;SHT31;56582;44.624;20.378;2023-04-25T12:00:19;14.53;68.63
69393;SHT31;56582;44.624;20.378;2023-04-25T12:02:56;14.25;70.41
69393;SHT31;56582;44.624;20.378;2023-04-25T12:05:29;14.25;69.77
69393;SHT31;56582;44.624;20.378;2023-04-25T12:07:55;14.87;70.47
69393;SHT31;56582;44.624;20.378;2023-04-25T12:10:21;15.31;68.05
69393;SHT31;56582;44.624;20.378;2023-04-25T12:12:47;15.61;65.42
69393;SHT31;56582;44.624;20.378;2023-04-25T12:15:24;15.24;63.77
69393;SHT31;56582;44.624;20.378;2023-04-25T12:17:52;15.59;66.90
69393;SHT31;56582;44.624;20.378;2023-04-25T12:20:24;16.06;68.11
69393;SHT31;56582;44.624;20.378;2023-04-25T12:22:52;15.99;65.33
69393;SHT31;56582;44.624;20.378;2023-04-25T12:25:38;16.21;67.33
69393;SHT31;56582;44.624;20.378;2023-04-25T12:28:23;16.24;63.37
69393;SHT31;56582;44.624;20.378;2023-04-25T12:31:01;16.02;62.36
69393;SHT31;56582;44.624;20.378;2023-04-25T12:33:29;16.28;64.59
69393;SHT31;56582;44.624;20.378;2023-04-25T12:35:56;16.04;61.56
69393;SHT31;56582;44.624;20.378;2023-04-25T12:38:29;16.04;64.68
69393;SHT31;56582;44.624;20.378;2023-04-25T12:40:56;16.04;63.23
69393;SHT31;56582;44.624;20.378;2023-04-25T12:43:22;16.06;64.74
69393;SHT31;56582;44.624;20.378;2023-04-25T12:45:52;16.43;64.24
69393;SHT31;56582;44.624;20.378;2023-04-25T12:48:18;16.72;65.26
69393;SHT31;56582;44.624;20.378;2023-04-25T12:50:43;16.68;62.13
69393;SHT31;56582;44.624;20.378;2023-04-25T12:53:09;16.52;64.86
69393;SHT31;56582;44.624;20.378;2023-04-25T12:55:35;16.43;64.04
69393;SHT31;56582;44.624;20.378;2023-04-25T12:58:01;15.87;66.56
69393;SHT31;56582;44.624;20.378;2023-04-25T13:00:27;15.79;70.59
69393;SHT31;56582;44.624;20.378;2023-04-25T13:02:52;15.65;67.27
69393;SHT31;56582;44.624;20.378;2023-04-25T13:05:17;15.52;69.39
69393;SHT31;56582;44.624;20.378;2023-04-25T13:07:43;15.51;68.80
69393;SHT31;56582;44.624;20.378;2023-04-25T13:10:08;15.41;68.62
69393;SHT31;56582;44.624;20.378;2023-04-25T13:12:34;15.39;67.97
69393;SHT31;56582;44.624;20.378;2023-04-25T13:14:59;15.58;66.29
69393;SHT31;56582;44.624;20.378;2023-04-25T13:17:25;15.51;66.27
69393;SHT31;56582;44.624;20.378;2023-04-25T13:19:50;15.35;65.80
69393;SHT31;56582;44.624;20.378;2023-04-25T13:22:16;15.41;65.87
69393;SHT31;56582;44.624;20.378;2023-04-25T13:24:42;15.31;66.19
69393;SHT31;56582;44.624;20.378;2023-04-25T13:27:08;15.46;65.87
69393;SHT31;56582;44.624;20.378;2023-04-25T13:29:34;15.59;64.26
69393;SHT31;56582;44.624;20.378;2023-04-25T13:32:01;15.38;63.16
69393;SHT31;56582;44.624;20.378;2023-04-25T13:34:27;15.55;68.15
69393;SHT31;56582;44.624;20.378;2023-04-25T13:36:53;16.07;69.80
69393;SHT31;56582;44.624;20.378;2023-04-25T13:39:18;16.09;65.16
69393;SHT31;56582;44.624;20.378;2023-04-25T13:41:46;16.34;65.87
69393;SHT31;56582;44.624;20.378;2023-04-25T13:44:12;16.55;63.91
69393;SHT31;56582;44.624;20.378;2023-04-25T13:46:37;16.20;61.57
69393;SHT31;56582;44.624;20.378;2023-04-25T13:49:04;16.69;65.44
69393;SHT31;56582;44.624;20.378;2023-04-25T13:51:29;16.75;63.84
69393;SHT31;56582;44.624;20.378;2023-04-25T13:53:56;16.81;62.43
69393;SHT31;56582;44.624;20.378;2023-04-25T13:56:21;17.09;62.91
69393;SHT31;56582;44.624;20.378;2023-04-25T13:58:48;17.24;65.36
69393;SHT31;56582;44.624;20.378;2023-04-25T14:01:14;17.18;61.32
69393;SHT31;56582;44.624;20.378;2023-04-25T14:03:43;16.44;61.41
69393;SHT31;56582;44.624;20.378;2023-04-25T14:06:11;16.41;60.07
69393;SHT31;56582;44.624;20.378;2023-04-25T14:08:38;16.35;60.01
69393;SHT31;56582;44.624;20.378;2023-04-25T14:11:03;16.30;61.58
69393;SHT31;56582;44.624;20.378;2023-04-25T14:13:29;16.24;61.59
69393;SHT31;56582;44.624;20.378;2023-04-25T14:15:55;16.07;61.77
69393;SHT31;56582;44.624;20.378;2023-04-25T14:18:20;16.38;62.73
69393;SHT31;56582;44.624;20.378;2023-04-25T14:20:46;16.91;67.34
69393;SHT31;56582;44.624;20.378;2023-04-25T14:23:11;16.75;60.20
69393;SHT31;56582;44.624;20.378;2023-04-25T14:25:37;16.96;60.23
69393;SHT31;56582;44.624;20.378;2023-04-25T14:28:03;16.72;56.55
69393;SHT31;56582;44.624;20.378;2023-04-25T14:30:29;16.69;58.42
69393;SHT31;56582;44.624;20.378;2023-04-25T14:32:54;16.60;58.61
69393;SHT31;56582;44.624;20.378;2023-04-25T14:35:20;16.40;56.15
69393;SHT31;56582;44.624;20.378;2023-04-25T14:37:45;16.50;58.13
69393;SHT31;56582;44.624;20.378;2023-04-25T14:40:11;16.20;55.13
69393;SHT31;56582;44.624;20.378;2023-04-25T14:42:39;16.23;56.37
69393;SHT31;56582;44.624;20.378;2023-04-25T14:45:05;16.44;56.53
69393;SHT31;56582;44.624;20.378;2023-04-25T14:47:32;16.62;56.30
69393;SHT31;56582;44.624;20.378;2023-04-25T14:49:58;16.52;57.27
69393;SHT31;56582;44.624;20.378;2023-04-25T14:52:23;16.67;57.07
69393;SHT31;56582;44.624;20.378;2023-04-25T14:54:49;16.68;56.28
69393;SHT31;56582;44.624;20.378;2023-04-25T14:57:15;16.92;57.79
69393;SHT31;56582;44.624;20.378;2023-04-25T14:59:41;16.92;57.68
69393;SHT31;56582;44.624;20.378;2023-04-25T15:02:06;16.57;55.61
69393;SHT31;56582;44.624;20.378;2023-04-25T15:04:32;16.47;57.34
69393;SHT31;56582;44.624;20.378;2023-04-25T15:06:57;16.41;55.92
69393;SHT31;56582;44.624;20.378;2023-04-25T15:09:23;16.44;58.27
69393;SHT31;56582;44.624;20.378;2023-04-25T15:11:49;16.52;59.19
69393;SHT31;56582;44.624;20.378;2023-04-25T15:14:16;16.68;56.48
69393;SHT31;56582;44.624;20.378;2023-04-25T15:16:42;16.58;57.87
69393;SHT31;56582;44.624;20.378;2023-04-25T15:19:07;16.16;59.33
69393;SHT31;56582;44.624;20.378;2023-04-25T15:21:33;15.97;58.43
69393;SHT31;56582;44.624;20.378;2023-04-25T15:23:58;15.87;59.38
69393;SHT31;56582;44.624;20.378;2023-04-25T15:26:24;15.92;59.75
69393;SHT31;56582;44.624;20.378;2023-04-25T15:28:50;15.94;59.28